Time;durP1;ratioP1;P1;durP2;ratioP2;P2;SDS_P1;SDS_P2;PMS_P1;PMS_P2;Temp;Humidity;BMP_temperature;BMP_pressure;BME280_temperature;BME280_humidity;BME280_pressure;Samples;Min_cycle;Max_cycle;Signal;HPM_P1;HPM_P2
2023/05/23 00:02:12;;;;;;;;;11.67;11.00;;;;;21.85;47.25;101501.91;4998978;28;56793;-53
2023/05/23 00:04:37;;;;;;;;;15.25;11.75;;;;;21.86;46.89;101506.25;4999150;28;45459;-42
2023/05/23 00:07:03;;;;;;;;;13.00;11.00;;;;;21.85;47.20;101511.59;4999359;28;45312;-46
2023/05/23 00:09:28;;;;;;;;;9.00;9.00;;;;;21.85;47.38;101512.47;5014200;28;47000;-49
2023/05/23 00:11:53;;;;;;;;;13.00;11.75;;;;;21.86;47.15;101514.16;4998907;28;45289;-47
2023/05/23 00:14:19;;;;;;;;;13.25;11.00;;;;;21.84;47.36;101505.47;4999119;28;45388;-51
2023/05/23 00:16:46;;;;;;;;;14.50;11.50;;;;;21.85;47.22;101507.19;4999307;28;45523;-46
2023/05/23 00:19:13;;;;;;;;;12.50;11.00;;;;;21.85;47.18;101501.91;4998994;28;46167;-42
2023/05/23 00:21:39;;;;;;;;;11.50;11.00;;;;;21.85;47.36;101498.38;4998951;28;45293;-43
2023/05/23 00:24:04;;;;;;;;;9.75;9.25;;;;;21.84;47.01;101494.91;5014240;28;45361;-43
2023/05/23 00:26:31;;;;;;;;;9.50;9.50;;;;;21.84;47.34;101497.56;4997681;28;45320;-42
2023/05/23 00:28:57;;;;;;;;;9.25;9.25;;;;;21.86;47.08;101486.91;4998698;28;46214;-42
2023/05/23 00:31:22;;;;;;;;;12.75;10.75;;;;;21.85;47.42;101490.47;4997342;28;45401;-44
2023/05/23 00:33:47;;;;;;;;;12.75;11.00;;;;;21.85;47.21;101499.25;4998756;28;45635;-49
2023/05/23 00:36:13;;;;;;;;;14.75;11.00;;;;;21.84;47.17;101499.31;4999208;28;45331;-45
2023/05/23 00:38:38;;;;;;;;;11.25;10.00;;;;;21.82;47.22;101496.78;4997818;28;47279;-51
2023/05/23 00:41:04;;;;;;;;;10.00;10.00;;;;;21.83;47.15;101495.84;4997066;28;50632;-49
2023/05/23 00:43:30;;;;;;;;;13.50;12.00;;;;;21.84;47.23;101497.56;4997389;28;45472;-45
2023/05/23 00:45:56;;;;;;;;;11.50;10.00;;;;;21.84;47.24;101494.03;4998731;28;45684;-45
2023/05/23 00:48:22;;;;;;;;;10.75;9.75;;;;;21.82;47.13;101491.50;4996879;28;46048;-49
2023/05/23 00:50:48;;;;;;;;;11.25;11.00;;;;;21.83;47.30;101501.13;4998428;28;45431;-55
2023/05/23 00:53:13;;;;;;;;;10.50;10.50;;;;;21.83;47.26;101498.47;4998883;28;45304;-48
2023/05/23 00:55:38;;;;;;;;;10.75;10.75;;;;;21.84;46.91;101499.31;4998584;28;45515;-42
2023/05/23 00:58:04;;;;;;;;;12.50;11.75;;;;;21.84;47.12;101494.03;4998308;28;46199;-48
2023/05/23 01:00:32;;;;;;;;;13.25;10.75;;;;;21.83;47.13;101489.72;4998286;28;45276;-49
2023/05/23 01:02:58;;;;;;;;;15.75;11.75;;;;;21.83;47.20;101487.09;4998138;28;45498;-52
2023/05/23 01:05:23;;;;;;;;;10.25;9.50;;;;;21.84;47.35;101491.41;4998474;28;45522;-47
2023/05/23 01:07:49;;;;;;;;;16.00;12.00;;;;;21.84;47.26;101494.03;4997644;28;52814;-42
2023/05/23 01:10:18;;;;;;;;;12.25;9.75;;;;;21.84;47.22;101481.72;4998356;28;45841;-42
2023/05/23 01:12:53;;;;;;;;;9.50;8.50;;;;;21.84;47.15;101487.00;4998405;28;45333;-42
2023/05/23 01:15:22;;;;;;;;;14.00;11.25;;;;;21.84;47.15;101484.34;4998340;28;45325;-42
2023/05/23 01:17:57;;;;;;;;;14.50;13.00;;;;;21.83;46.92;101480.00;4998009;28;46379;-47
2023/05/23 01:20:33;;;;;;;;;14.75;12.00;;;;;21.83;47.23;101489.72;4997792;28;46030;-42
2023/05/23 01:23:13;;;;;;;;;11.00;10.25;;;;;21.83;47.12;101487.94;4998084;28;45295;-42
2023/05/23 01:25:48;;;;;;;;;13.25;10.25;;;;;21.83;47.22;101493.19;4998105;28;45233;-42
2023/05/23 01:28:16;;;;;;;;;11.25;10.25;;;;;21.83;47.11;101492.38;4998303;28;45374;-44
2023/05/23 01:30:44;;;;;;;;;11.25;11.25;;;;;21.83;47.09;101492.38;4997736;28;45873;-43
2023/05/23 01:33:15;;;;;;;;;12.75;11.25;;;;;21.83;47.05;101498.47;4996634;28;45334;-47
2023/05/23 01:35:42;;;;;;;;;13.25;12.00;;;;;21.82;47.23;101502.03;4998146;28;45284;-42
2023/05/23 01:38:08;;;;;;;;;13.50;9.50;;;;;21.82;46.97;101495.94;4997648;28;47016;-42
2023/05/23 01:40:33;;;;;;;;;12.50;10.25;;;;;21.81;47.13;101497.69;4997725;28;45443;-48
2023/05/23 01:42:59;;;;;;;;;7.25;7.25;;;;;21.82;47.03;101504.69;4997806;28;45312;-42
2023/05/23 01:45:26;;;;;;;;;10.00;10.00;;;;;21.82;47.06;101495.94;4996406;28;45440;-42
2023/05/23 01:47:52;;;;;;;;;11.25;11.00;;;;;21.81;47.17;101505.63;4997549;28;45359;-51
2023/05/23 01:50:18;;;;;;;;;12.00;10.50;;;;;21.82;46.99;101515.25;4996590;28;45304;-45
2023/05/23 01:52:46;;;;;;;;;12.25;9.50;;;;;21.81;46.94;101505.63;4997625;28;45476;-48
2023/05/23 01:55:15;;;;;;;;;11.00;9.25;;;;;21.82;46.79;101517.88;4997636;28;45546;-51
2023/05/23 01:57:40;;;;;;;;;10.75;9.75;;;;;21.82;46.98;101512.59;4997241;28;45454;-42
2023/05/23 02:00:07;;;;;;;;;13.50;12.00;;;;;21.81;46.83;101510.88;4997342;28;45336;-49
2023/05/23 02:02:33;;;;;;;;;11.75;10.75;;;;;21.81;46.92;101510.88;4997392;28;45277;-46
2023/05/23 02:04:58;;;;;;;;;12.00;9.75;;;;;21.82;46.92;101511.75;4997017;28;52212;-48
2023/05/23 02:07:23;;;;;;;;;11.25;10.75;;;;;21.81;46.91;101510.88;4997118;28;45258;-51
2023/05/23 02:09:49;;;;;;;;;13.00;11.67;;;;;21.82;46.86;101514.41;4996625;28;65764;-49
2023/05/23 02:12:14;;;;;;;;;11.00;10.50;;;;;21.80;46.78;101503.06;4997121;28;45427;-55
2023/05/23 02:14:41;;;;;;;;;10.25;9.75;;;;;21.81;46.77;101500.34;4997312;28;45534;-52
2023/05/23 02:17:08;;;;;;;;;14.00;11.75;;;;;21.81;46.87;101505.63;4997098;28;46098;-53
2023/05/23 02:19:34;;;;;;;;;12.75;9.75;;;;;21.81;46.84;101504.78;4997363;28;45446;-56
2023/05/23 02:21:59;;;;;;;;;9.25;9.25;;;;;21.81;46.73;101516.16;4997081;28;45455;-50
2023/05/23 02:24:25;;;;;;;;;14.00;10.75;;;;;21.81;46.93;101515.34;4997259;28;45478;-58
2023/05/23 02:26:51;;;;;;;;;11.75;11.25;;;;;21.82;46.71;101517.03;4997223;28;45415;-56
2023/05/23 02:29:17;;;;;;;;;11.50;9.50;;;;;21.82;46.53;101519.69;4997244;28;45842;-53
2023/05/23 02:31:42;;;;;;;;;11.00;10.25;;;;;21.80;46.67;101514.47;4996917;28;45277;-50
2023/05/23 02:34:08;;;;;;;;;9.75;7.75;;;;;21.80;46.79;101517.09;4997242;28;46123;-46
2023/05/23 02:36:33;;;;;;;;;13.75;11.25;;;;;21.79;46.59;101507.47;4996603;28;47061;-54
2023/05/23 02:38:58;;;;;;;;;13.00;10.75;;;;;21.79;46.48;101512.75;4996301;28;58229;-45
2023/05/23 02:41:23;;;;;;;;;11.50;11.25;;;;;21.79;46.46;101512.75;4996865;28;45242;-48
2023/05/23 02:43:49;;;;;;;;;12.50;11.25;;;;;21.80;46.74;101511.81;4997111;28;45221;-42
2023/05/23 02:46:14;;;;;;;;;10.50;9.50;;;;;21.79;46.53;101512.75;4996347;28;53314;-49
2023/05/23 02:48:39;;;;;;;;;12.75;10.00;;;;;21.80;46.70;101511.81;4996110;28;50822;-56
2023/05/23 02:51:05;;;;;;;;;11.33;9.00;;;;;21.80;46.62;101508.34;4996096;28;57674;-52
2023/05/23 02:53:30;;;;;;;;;12.00;11.00;;;;;21.80;46.80;101508.34;4996679;28;45333;-54
2023/05/23 02:55:56;;;;;;;;;10.00;10.00;;;;;21.80;46.59;101508.34;4996376;28;46580;-54
2023/05/23 02:58:21;;;;;;;;;10.25;10.25;;;;;21.79;46.72;101507.47;4996798;28;45249;-56
2023/05/23 03:00:46;;;;;;;;;10.75;10.00;;;;;21.78;46.46;101518.94;4995890;28;55926;-54
2023/05/23 03:03:11;;;;;;;;;13.75;10.50;;;;;21.80;46.51;101521.53;4996592;28;45686;-56
2023/05/23 03:05:37;;;;;;;;;11.25;9.50;;;;;21.78;46.59;101513.66;5011636;28;48474;-56
2023/05/23 03:08:02;;;;;;;;;10.00;9.25;;;;;21.78;46.45;101517.19;5011496;28;45562;-49
2023/05/23 03:10:27;;;;;;;;;11.75;11.50;;;;;21.78;46.71;101521.59;4995894;28;58834;-45
2023/05/23 03:12:53;;;;;;;;;11.00;10.33;;;;;21.77;46.73;101526.03;4995092;28;50540;-42
2023/05/23 03:15:18;;;;;;;;;12.50;10.25;;;;;21.78;46.86;101526.88;4996276;28;45379;-45
2023/05/23 03:17:43;;;;;;;;;14.50;10.50;;;;;21.78;46.51;101522.47;4996216;28;45458;-44
2023/05/23 03:20:10;;;;;;;;;13.25;9.75;;;;;21.79;46.42;101525.94;4996091;28;48253;-45
2023/05/23 03:22:35;;;;;;;;;9.75;9.75;;;;;21.77;46.42;101523.38;4996549;28;45418;-42
2023/05/23 03:25:01;;;;;;;;;12.75;9.75;;;;;21.77;46.56;101518.13;4996262;28;46272;-42
2023/05/23 03:27:26;;;;;;;;;9.75;9.75;;;;;21.77;46.53;101520.75;5011437;28;45400;-42
2023/05/23 03:29:51;;;;;;;;;10.25;10.25;;;;;21.76;46.39;101528.75;4996678;28;45327;-51
2023/05/23 03:32:16;;;;;;;;;12.50;10.50;;;;;21.75;46.46;101519.97;4996242;28;45261;-47
2023/05/23 03:34:42;;;;;;;;;10.00;10.00;;;;;21.78;46.32;101534.78;4995821;28;52637;-45
2023/05/23 03:37:07;;;;;;;;;10.00;10.00;;;;;21.77;46.30;101546.28;4995451;28;59566;-42
2023/05/23 03:39:32;;;;;;;;;9.50;9.50;;;;;21.76;46.43;101547.22;4996152;28;45195;-45
2023/05/23 03:41:58;;;;;;;;;16.00;11.75;;;;;21.76;46.63;101544.59;4996238;28;45303;-42
2023/05/23 03:44:23;;;;;;;;;12.25;9.00;;;;;21.77;46.45;101555.06;4994928;28;46895;-46
2023/05/23 03:46:48;;;;;;;;;10.25;9.25;;;;;21.77;46.72;101554.22;4995982;28;45234;-49
2023/05/23 03:49:14;;;;;;;;;11.75;11.25;;;;;21.77;46.36;101547.13;4996151;28;45343;-52
2023/05/23 03:51:39;;;;;;;;;9.50;9.50;;;;;21.76;46.55;101549.88;4996608;28;45661;-56
2023/05/23 03:54:05;;;;;;;;;11.00;11.00;;;;;21.76;46.15;101555.97;4995723;28;46961;-47
2023/05/23 03:56:30;;;;;;;;;10.00;10.00;;;;;21.76;46.29;101552.50;4995796;28;45272;-48
2023/05/23 03:58:55;;;;;;;;;10.25;9.25;;;;;21.77;46.49;101562.13;4996067;28;45239;-44
2023/05/23 04:01:20;;;;;;;;;11.00;10.00;;;;;21.75;46.38;101553.44;4995993;28;45586;-41
2023/05/23 04:03:46;;;;;;;;;9.00;9.00;;;;;21.76;46.50;101565.69;4995760;28;45331;-40
2023/05/23 04:06:12;;;;;;;;;12.75;11.50;;;;;21.75;46.21;101564.81;4995650;28;45384;-40
2023/05/23 04:08:40;;;;;;;;;11.00;11.00;;;;;21.75;46.36;101566.63;4995814;28;45459;-46
2023/05/23 04:11:06;;;;;;;;;12.75;12.25;;;;;21.75;46.58;101572.72;4995774;28;45324;-49
2023/05/23 04:13:32;;;;;;;;;11.50;10.00;;;;;21.76;46.26;101570.97;4996490;28;45348;-49
2023/05/23 04:16:00;;;;;;;;;11.75;8.25;;;;;21.73;45.99;101565.84;4998469;28;45221;-49
2023/05/23 04:18:27;;;;;;;;;9.75;9.75;;;;;21.73;46.06;101573.75;4999396;28;45388;-52
2023/05/23 04:20:53;;;;;;;;;14.75;12.50;;;;;21.72;46.42;101579.94;5000417;28;45545;-48
2023/05/23 04:23:18;;;;;;;;;15.00;12.75;;;;;21.71;46.52;101579.13;4998407;28;45415;-44
2023/05/23 04:25:43;;;;;;;;;17.00;11.75;;;;;21.70;46.20;101582.69;4997306;28;45369;-50
2023/05/23 04:28:10;;;;;;;;;17.00;15.00;;;;;21.69;46.31;101575.69;4998463;28;45499;-47
2023/05/23 04:30:35;;;;;;;;;15.00;14.75;;;;;21.69;46.30;101580.09;4997522;28;45636;-44
2023/05/23 04:33:01;;;;;;;;;16.25;11.25;;;;;21.68;46.20;101583.66;4997271;28;49010;-43
2023/05/23 04:35:32;;;;;;;;;15.75;13.50;;;;;21.66;45.95;101581.09;4998830;28;45360;-41
2023/05/23 04:37:58;;;;;;;;;13.50;12.25;;;;;21.66;46.15;101585.53;4998966;28;45414;-46
2023/05/23 04:40:23;;;;;;;;;13.00;13.00;;;;;21.63;46.37;101581.25;4996967;28;49422;-50
2023/05/23 04:42:50;;;;;;;;;18.25;12.00;;;;;21.62;46.15;101588.31;4997083;28;48367;-44
2023/05/23 04:45:19;;;;;;;;;12.50;11.25;;;;;21.60;46.04;101584.91;4998459;28;45917;-41
2023/05/23 04:47:45;;;;;;;;;15.00;13.25;;;;;21.61;46.18;101593.66;4998429;28;45323;-45
2023/05/23 04:50:10;;;;;;;;;16.75;13.00;;;;;21.60;46.15;101589.31;4998608;28;45628;-47
2023/05/23 04:52:36;;;;;;;;;13.75;12.75;;;;;21.58;45.96;101594.63;4998230;28;45480;-44
2023/05/23 04:55:01;;;;;;;;;14.75;11.25;;;;;21.57;46.13;101590.28;4997844;28;55477;-41
2023/05/23 04:57:27;;;;;;;;;14.00;11.50;;;;;21.57;45.94;101592.06;4997568;28;45436;-44
2023/05/23 04:59:52;;;;;;;;;15.25;12.50;;;;;21.55;45.99;101591.28;4997322;28;45606;-47
2023/05/23 05:02:17;;;;;;;;;12.50;11.75;;;;;21.55;46.15;101593.91;4998026;28;50254;-48
2023/05/23 05:04:43;;;;;;;;;15.50;12.25;;;;;21.54;46.20;101584.28;4998191;28;45375;-45
2023/05/23 05:07:09;;;;;;;;;13.25;13.25;;;;;21.54;46.34;101593.09;4998018;28;45451;-50
2023/05/23 05:09:34;;;;;;;;;12.25;12.25;;;;;21.53;46.63;101594.00;5004373;28;45585;-49
2023/05/23 05:11:59;;;;;;;;;14.00;12.33;;;;;21.54;46.45;101603.63;4996890;28;61582;-45
2023/05/23 05:14:26;;;;;;;;;14.00;12.75;;;;;21.53;46.67;101596.66;4996028;28;45419;-48
2023/05/23 05:16:53;;;;;;;;;16.75;12.00;;;;;21.52;47.01;101600.22;4996314;28;45478;-52
2023/05/23 05:19:18;;;;;;;;;15.00;12.00;;;;;21.52;47.15;101599.34;4997194;28;45421;-51
2023/05/23 05:21:44;;;;;;;;;15.00;12.00;;;;;21.51;47.24;101598.50;4997853;28;46190;-49
2023/05/23 05:24:09;;;;;;;;;12.25;12.25;;;;;21.52;47.23;101600.22;4997777;28;47539;-50
2023/05/23 05:26:35;;;;;;;;;17.50;11.50;;;;;21.52;47.02;101604.59;4998108;28;45321;-52
2023/05/23 05:29:01;;;;;;;;;11.25;11.25;;;;;21.52;47.22;101605.47;4998515;28;45308;-42
2023/05/23 05:31:26;;;;;;;;;13.50;11.00;;;;;21.52;47.11;101613.41;4997529;28;45956;-44
2023/05/23 05:33:51;;;;;;;;;16.50;12.50;;;;;21.51;47.07;101609.03;4997742;28;45853;-46
2023/05/23 05:36:18;;;;;;;;;11.25;11.00;;;;;21.51;47.24;101608.16;4997590;28;45445;-45
2023/05/23 05:38:44;;;;;;;;;12.50;11.75;;;;;21.50;47.23;101609.97;4997830;28;45522;-47
2023/05/23 05:41:09;;;;;;;;;14.25;12.00;;;;;21.51;47.39;101609.03;4997523;28;45941;-45
2023/05/23 05:43:35;;;;;;;;;13.00;11.00;;;;;21.50;47.37;101612.59;4997604;28;45422;-45
2023/05/23 05:46:00;;;;;;;;;13.00;11.00;;;;;21.50;47.12;101612.59;4997991;28;45455;-46
2023/05/23 05:48:25;;;;;;;;;16.00;12.33;;;;;21.50;47.11;101614.41;4997314;28;45612;-46
2023/05/23 05:50:51;;;;;;;;;13.00;11.00;;;;;21.47;47.20;101618.00;4996871;28;55431;-50
2023/05/23 05:53:16;;;;;;;;;10.25;10.25;;;;;21.49;47.07;101620.59;4995912;28;45732;-44
2023/05/23 05:55:42;;;;;;;;;13.25;9.75;;;;;21.48;47.07;101614.44;4996287;28;45689;-48
2023/05/23 05:58:07;;;;;;;;;10.00;9.25;;;;;21.46;47.06;101617.19;4997592;28;45178;-46
2023/05/23 06:00:33;;;;;;;;;9.00;8.00;;;;;21.44;46.88;101624.28;4997566;28;45227;-45
2023/05/23 06:02:59;;;;;;;;;11.00;10.25;;;;;21.46;46.95;101626.84;4997262;28;45309;-47
2023/05/23 06:05:25;;;;;;;;;13.50;9.00;;;;;21.44;46.74;101623.47;4997274;28;45353;-48
2023/05/23 06:07:51;;;;;;;;;10.75;10.75;;;;;21.43;47.14;101625.22;4997477;28;45175;-49
2023/05/23 06:10:16;;;;;;;;;11.00;9.00;;;;;21.42;46.89;101625.31;4996984;28;45986;-46
2023/05/23 06:12:42;;;;;;;;;8.75;8.75;;;;;21.42;47.06;101626.16;4997121;28;45473;-49
2023/05/23 06:15:08;;;;;;;;;10.75;9.25;;;;;21.42;46.94;101635.84;4997147;28;45467;-51
2023/05/23 06:17:34;;;;;;;;;8.50;8.50;;;;;21.41;46.88;101619.16;4997640;28;45347;-54
2023/05/23 06:19:59;;;;;;;;;9.50;9.50;;;;;21.42;47.11;101627.94;4996911;28;46468;-45
2023/05/23 06:22:25;;;;;;;;;8.75;7.75;;;;;21.41;47.09;101618.31;4996927;28;45287;-52
2023/05/23 06:24:50;;;;;;;;;10.25;10.25;;;;;21.40;46.96;101628.00;4997038;28;45292;-48
2023/05/23 06:27:15;;;;;;;;;9.00;9.00;;;;;21.42;46.94;101630.56;4997113;28;45595;-54
2023/05/23 06:29:41;;;;;;;;;10.25;8.50;;;;;21.41;46.97;101629.72;4996774;28;45910;-47
2023/05/23 06:32:06;;;;;;;;;11.00;8.00;;;;;21.42;46.82;101630.56;4997073;28;45784;-55
2023/05/23 06:34:32;;;;;;;;;7.75;7.75;;;;;21.41;46.74;101634.13;4997446;28;45792;-52
2023/05/23 06:36:57;;;;;;;;;9.25;7.00;;;;;21.40;46.91;101641.19;4996357;28;45255;-54
2023/05/23 06:39:22;;;;;;;;;11.75;8.25;;;;;21.40;46.88;101641.19;4996716;28;45494;-50
2023/05/23 06:41:48;;;;;;;;;8.25;7.75;;;;;21.40;46.97;101642.97;4996791;28;46044;-55
2023/05/23 06:44:14;;;;;;;;;10.75;9.00;;;;;21.38;46.96;101636.91;4996894;28;45230;-51
2023/05/23 06:46:39;;;;;;;;;9.75;9.00;;;;;21.38;46.85;101645.69;4995689;28;45236;-42
2023/05/23 06:49:05;;;;;;;;;8.75;8.25;;;;;21.38;46.88;101650.09;4996661;28;45722;-43
2023/05/23 06:51:30;;;;;;;;;12.00;8.00;;;;;21.37;46.59;101648.38;4996552;28;45336;-45
2023/05/23 06:53:55;;;;;;;;;9.00;9.00;;;;;21.37;46.85;101651.03;4996653;28;45462;-43
2023/05/23 06:56:22;;;;;;;;;6.00;6.00;;;;;21.37;46.74;101658.94;4996822;28;45543;-44
2023/05/23 06:58:48;;;;;;;;;8.50;8.50;;;;;21.37;46.84;101659.81;4996246;28;46249;-43
2023/05/23 07:01:13;;;;;;;;;9.25;8.00;;;;;21.36;46.70;101659.84;4996645;28;45466;-43
2023/05/23 07:03:40;;;;;;;;;10.00;8.50;;;;;21.38;46.83;101663.28;4996659;28;45422;-44
2023/05/23 07:06:06;;;;;;;;;10.25;7.75;;;;;21.38;46.89;101665.91;4996754;28;45407;-48
2023/05/23 07:08:32;;;;;;;;;9.50;7.50;;;;;21.36;46.86;101668.63;4996449;28;46189;-43
2023/05/23 07:10:57;;;;;;;;;8.75;8.25;;;;;21.35;46.88;101666.03;4995005;28;45278;-44
2023/05/23 07:13:22;;;;;;;;;10.50;9.25;;;;;21.38;46.90;101681.75;4995994;28;58189;-44
2023/05/23 07:15:47;;;;;;;;;10.00;8.00;;;;;21.37;46.94;101677.38;4996495;28;45507;-46
2023/05/23 07:18:13;;;;;;;;;8.00;8.00;;;;;21.37;47.12;101677.38;4996291;28;45332;-45
2023/05/23 07:20:38;;;;;;;;;13.00;9.00;;;;;21.37;47.16;101682.66;4996225;28;50503;-45
2023/05/23 07:23:03;;;;;;;;;10.33;9.67;;;;;21.36;46.98;101673.91;4995852;28;54175;-46
2023/05/23 07:25:29;;;;;;;;;9.25;7.50;;;;;21.37;47.19;101680.03;4996596;28;45427;-49
2023/05/23 07:27:54;;;;;;;;;10.00;9.00;;;;;21.37;47.05;101685.28;4995258;28;66187;-44
2023/05/23 07:30:21;;;;;;;;;13.50;10.50;;;;;21.36;47.20;101676.53;4996069;28;45874;-45
2023/05/23 07:32:47;;;;;;;;;11.75;8.25;;;;;21.36;46.92;101684.47;4996235;28;45439;-48
2023/05/23 07:35:13;;;;;;;;;9.00;8.50;;;;;21.37;47.43;101685.28;4996256;28;45505;-43
2023/05/23 07:37:39;;;;;;;;;9.00;9.00;;;;;21.38;47.23;101701.06;4996453;28;46283;-43
2023/05/23 07:40:05;;;;;;;;;10.25;9.00;;;;;21.38;47.39;101697.56;4994765;28;45430;-43
2023/05/23 07:42:30;;;;;;;;;12.50;11.00;;;;;21.39;47.09;101691.38;4996080;28;45411;-43
2023/05/23 07:44:55;;;;;;;;;10.50;10.50;;;;;21.39;47.05;101696.63;5010705;28;51526;-40
2023/05/23 07:47:21;;;;;;;;;12.50;11.25;;;;;21.38;47.03;101692.28;4995851;28;46353;-41
2023/05/23 07:49:46;;;;;;;;;10.75;9.00;;;;;21.41;47.18;101698.28;4998096;28;45537;-46
2023/05/23 07:52:11;;;;;;;;;11.25;11.00;;;;;21.40;47.31;101696.56;5004730;28;45506;-43
2023/05/23 07:54:37;;;;;;;;;13.50;10.00;;;;;21.40;46.87;101701.00;5019736;28;45392;-46
2023/05/23 07:57:03;;;;;;;;;11.75;9.00;;;;;21.40;46.81;101696.56;5018965;28;45259;-43
2023/05/23 07:59:29;;;;;;;;;10.75;10.50;;;;;21.42;47.08;101713.16;5019052;28;45243;-43
2023/05/23 08:01:54;;;;;;;;;8.75;8.75;;;;;21.42;47.04;101704.41;5017810;28;45304;-44
2023/05/23 08:04:20;;;;;;;;;10.75;10.00;;;;;21.41;47.08;101703.53;5034584;28;45515;-43
2023/05/23 08:06:46;;;;;;;;;10.25;10.25;;;;;21.42;47.11;101714.97;5018573;28;46269;-44
2023/05/23 08:09:12;;;;;;;;;10.50;10.25;;;;;21.41;47.05;101697.44;5019126;28;45324;-44
2023/05/23 08:11:37;;;;;;;;;11.75;11.00;;;;;21.39;46.98;101705.38;5019209;28;45681;-47
2023/05/23 08:14:02;;;;;;;;;11.00;9.50;;;;;21.35;46.93;101703.84;5019080;28;45311;-50
2023/05/23 08:16:28;;;;;;;;;10.25;10.25;;;;;21.35;46.75;101709.13;5018517;28;52003;-46
2023/05/23 08:18:53;;;;;;;;;9.75;9.50;;;;;21.34;47.13;101717.06;5018758;28;45383;-43
2023/05/23 08:21:18;;;;;;;;;11.25;9.25;;;;;21.31;47.14;101720.72;5017833;28;45311;-44
2023/05/23 08:23:44;;;;;;;;;12.25;11.25;;;;;21.30;46.83;101719.00;5018090;28;45626;-46
2023/05/23 08:26:09;;;;;;;;;10.25;10.25;;;;;21.28;47.24;101715.56;5017678;28;61233;-43
2023/05/23 08:28:34;;;;;;;;;9.00;9.00;;;;;21.28;46.74;101713.81;5017336;28;45460;-45
2023/05/23 08:31:00;;;;;;;;;7.50;7.00;;;;;21.27;47.23;101722.63;5018539;28;45893;-43
2023/05/23 08:33:25;;;;;;;;;11.00;11.00;;;;;21.26;46.85;101713.00;5034120;28;45651;-43
2023/05/23 16:32:49;;;;;;;;;10.00;10.00;;;;;21.57;42.35;101666.78;5534183;23;46586;-56
2023/05/23 16:35:14;;;;;;;;;9.75;9.75;;;;;21.58;42.28;101668.47;5017410;28;45494;-56
2023/05/23 16:37:40;;;;;;;;;11.00;10.00;;;;;21.56;42.32;101665.06;5017360;28;45382;-56
2023/05/23 16:40:06;;;;;;;;;12.00;9.25;;;;;21.59;42.08;101675.50;5016463;28;45522;-59
2023/05/23 16:42:31;;;;;;;;;11.50;8.25;;;;;21.57;42.03;101661.50;5018555;28;45252;-59
2023/05/23 16:44:56;;;;;;;;;6.25;6.25;;;;;21.56;41.77;101665.06;5017796;28;54492;-59
2023/05/23 16:47:22;;;;;;;;;6.75;6.25;;;;;21.57;41.66;101656.22;5016926;28;45246;-62
2023/05/23 16:49:47;;;;;;;;;6.00;5.00;;;;;21.61;41.37;101662.22;5017210;28;45319;-59
2023/05/23 16:52:13;;;;;;;;;5.00;5.00;;;;;21.60;41.21;101661.38;5018184;28;45417;-58
2023/05/23 16:54:38;;;;;;;;;6.00;5.00;;;;;21.60;41.27;101650.84;5017664;28;45389;-59
2023/05/23 16:57:04;;;;;;;;;7.00;5.00;;;;;21.62;41.37;101654.28;5016527;28;45456;-58
2023/05/23 16:59:31;;;;;;;;;5.25;4.00;;;;;21.64;41.39;101648.06;5017884;28;45385;-49
2023/05/23 17:01:56;;;;;;;;;5.00;5.00;;;;;21.66;41.44;101656.78;5017608;28;45240;-60
2023/05/23 17:04:22;;;;;;;;;5.00;4.00;;;;;21.67;41.04;101656.69;5017824;28;46209;-61
2023/05/23 17:06:47;;;;;;;;;5.00;5.00;;;;;21.66;41.33;101654.13;5018035;28;45425;-60
2023/05/23 17:09:13;;;;;;;;;7.75;5.00;;;;;21.66;41.36;101656.78;5018261;28;45462;-60
2023/05/23 17:11:41;;;;;;;;;6.75;5.00;;;;;21.67;40.92;101653.19;5017580;28;45600;-61
2023/05/23 17:14:06;;;;;;;;;5.50;4.00;;;;;21.66;40.58;101656.78;5017790;28;45226;-60
2023/05/23 17:16:33;;;;;;;;;3.75;3.75;;;;;21.65;41.21;101655.06;5017414;28;45447;-59
2023/05/23 17:18:59;;;;;;;;;6.25;4.50;;;;;21.64;40.88;101645.44;5016193;28;45329;-59
2023/05/23 17:21:25;;;;;;;;;6.25;5.00;;;;;21.64;40.68;101650.69;5017246;28;45465;-57
2023/05/23 17:23:51;;;;;;;;;4.25;4.25;;;;;21.61;40.47;101660.47;5017501;28;45438;-57
2023/05/23 17:26:16;;;;;;;;;6.50;6.50;;;;;21.61;40.75;101656.97;5017887;28;45385;-60
2023/05/23 17:28:41;;;;;;;;;7.75;6.25;;;;;21.61;40.72;101656.97;5018124;28;45355;-59
2023/05/23 17:31:07;;;;;;;;;7.00;7.00;;;;;21.59;40.72;101649.13;5017985;28;45237;-58
2023/05/23 17:33:32;;;;;;;;;5.75;5.50;;;;;21.59;40.53;101649.13;5017248;28;47246;-58
2023/05/23 17:35:58;;;;;;;;;7.00;5.25;;;;;21.58;40.44;101646.53;5016278;28;45319;-59
2023/05/23 17:38:23;;;;;;;;;6.00;6.00;;;;;21.58;40.29;101647.38;5017646;28;45267;-63
2023/05/23 17:40:49;;;;;;;;;0.00;0.00;;;;;21.55;40.49;101644.88;5016598;28;45323;-58
2023/05/23 17:43:14;;;;;;;;;6.00;6.00;;;;;21.56;40.69;101649.22;5017681;28;46985;-58
2023/05/23 17:45:40;;;;;;;;;6.25;6.00;;;;;21.54;40.91;101640.56;5017425;28;45320;-57
2023/05/23 17:48:06;;;;;;;;;6.50;6.50;;;;;21.55;40.78;101647.50;5017561;28;45233;-60
2023/05/23 17:50:31;;;;;;;;;8.25;6.75;;;;;21.55;40.82;101642.25;5017543;28;45696;-61
2023/05/23 17:52:56;;;;;;;;;8.25;6.75;;;;;21.54;41.15;101637.91;5017218;28;45746;-62
2023/05/23 17:55:22;;;;;;;;;7.00;6.00;;;;;21.54;40.97;101644.97;5017295;28;45336;-60
2023/05/23 17:57:47;;;;;;;;;7.00;7.00;;;;;21.53;41.07;101644.13;5017203;28;47368;-59
2023/05/23 18:00:13;;;;;;;;;7.50;6.00;;;;;21.55;41.08;101651.94;5017918;28;45590;-59
2023/05/23 18:02:38;;;;;;;;;6.00;6.00;;;;;21.52;41.23;101646.81;5016123;28;46641;-55
2023/05/23 18:05:05;;;;;;;;;5.50;4.25;;;;;21.54;40.84;101650.25;5015875;28;45373;-58
2023/05/23 18:07:31;;;;;;;;;10.75;7.00;;;;;21.53;41.26;101643.25;5017353;28;45338;-64
2023/05/23 18:10:00;;;;;;;;;7.75;6.50;;;;;21.52;41.16;101637.13;5016548;28;45809;-59
2023/05/23 18:12:25;;;;;;;;;6.25;6.25;;;;;21.51;41.08;101645.97;5016496;28;46217;-46
2023/05/23 18:14:51;;;;;;;;;7.50;6.25;;;;;21.52;41.09;101654.72;5016012;28;45371;-55
2023/05/23 18:17:18;;;;;;;;;9.00;7.00;;;;;21.53;41.13;101659.94;5017238;28;45420;-53
2023/05/23 18:19:44;;;;;;;;;5.00;5.00;;;;;21.50;40.75;101651.31;5016948;28;45466;-52
2023/05/23 18:22:09;;;;;;;;;7.25;5.75;;;;;21.52;40.86;101665.28;5016148;28;46377;-61
2023/05/23 18:24:35;;;;;;;;;7.75;5.50;;;;;21.50;40.93;101651.31;5016510;28;45379;-62
2023/05/23 18:27:01;;;;;;;;;5.75;5.00;;;;;21.48;40.79;101648.75;5015423;28;45387;-54
2023/05/23 18:29:27;;;;;;;;;8.75;5.25;;;;;21.47;40.40;101655.81;5015806;28;45379;-50
2023/05/23 18:31:52;;;;;;;;;8.25;6.00;;;;;21.46;40.84;101659.38;5015065;28;45426;-65
2023/05/23 18:34:17;;;;;;;;;7.00;5.25;;;;;21.46;40.51;101664.66;5016624;28;45380;-66
2023/05/23 18:36:43;;;;;;;;;7.00;5.25;;;;;21.46;40.57;101663.78;5016126;28;54500;-63
2023/05/23 18:39:08;;;;;;;;;6.00;5.00;;;;;21.46;40.44;101664.66;5016165;28;45503;-66
2023/05/23 18:41:34;;;;;;;;;5.25;5.25;;;;;21.46;40.11;101669.06;5015862;28;46610;-61
2023/05/23 18:44:00;;;;;;;;;8.25;4.75;;;;;21.44;39.94;101665.66;5016198;28;45949;-66
2023/05/23 18:46:26;;;;;;;;;7.00;5.25;;;;;21.43;40.16;101670.06;5016046;28;45483;-67
2023/05/23 18:48:51;;;;;;;;;9.25;5.25;;;;;21.41;40.26;101661.34;5014992;28;45281;-60
2023/05/23 18:51:18;;;;;;;;;7.75;5.50;;;;;21.42;39.86;101672.78;5015746;28;46716;-61
2023/05/23 18:53:43;;;;;;;;;5.00;4.25;;;;;21.40;40.08;101671.97;5016380;28;45354;-67
2023/05/23 18:56:09;;;;;;;;;7.00;7.00;;;;;21.42;39.95;101678.88;5016604;28;45406;-66
2023/05/23 18:58:34;;;;;;;;;5.25;5.00;;;;;21.42;40.06;101672.78;5016438;28;45348;-61
2023/05/23 19:01:02;;;;;;;;;5.50;5.00;;;;;21.41;39.91;101674.53;5015718;28;45574;-56
2023/05/23 19:03:33;;;;;;;;;4.00;4.00;;;;;21.41;40.03;101685.09;5015383;28;45308;-66
2023/05/23 19:06:01;;;;;;;;;10.25;5.75;;;;;21.41;39.71;101693.00;5001954;28;45510;-50
2023/05/23 19:08:27;;;;;;;;;6.00;5.50;;;;;21.41;39.76;101684.25;5016253;28;45427;-54